createdAt,value
2023-07-24T00:02:16.329Z,57.46
2023-07-24T00:04:42.976Z,57.42
2023-07-24T00:07:09.665Z,57.04
2023-07-24T00:09:36.342Z,57.05
2023-07-24T00:12:02.937Z,57.30
2023-07-24T00:14:29.516Z,57.36
2023-07-24T00:16:56.276Z,57.71
2023-07-24T00:19:22.972Z,57.32
2023-07-24T00:21:49.561Z,57.67
2023-07-24T00:24:16.242Z,57.68
2023-07-24T00:26:42.849Z,57.98
2023-07-24T00:29:09.430Z,57.83
2023-07-24T00:31:36.080Z,58.06
2023-07-24T00:34:02.704Z,58.03
2023-07-24T00:36:29.597Z,58.11
2023-07-24T00:38:56.637Z,58.23
2023-07-24T00:41:23.223Z,58.12
2023-07-24T00:43:49.840Z,58.08
2023-07-24T00:46:16.684Z,58.20
2023-07-24T00:48:43.383Z,58.48
2023-07-24T00:51:09.981Z,58.45
2023-07-24T00:53:36.655Z,58.32
2023-07-24T00:56:03.254Z,58.52
2023-07-24T00:58:29.852Z,58.55
2023-07-24T01:00:56.932Z,58.61
2023-07-24T01:03:24.078Z,58.56
2023-07-24T01:05:50.701Z,58.69
2023-07-24T01:08:17.520Z,58.56
2023-07-24T01:10:44.184Z,58.64
2023-07-24T01:13:20.665Z,58.69
2023-07-24T01:15:49.950Z,58.73
2023-07-24T01:18:16.530Z,58.83
2023-07-24T01:20:50.140Z,58.96
2023-07-24T01:23:16.897Z,58.75
2023-07-24T01:25:53.216Z,58.78
2023-07-24T01:28:19.888Z,58.81
2023-07-24T01:30:46.870Z,58.88
2023-07-24T01:33:14.247Z,59.13
2023-07-24T01:35:40.826Z,58.97
2023-07-24T01:38:07.505Z,58.95
2023-07-24T01:40:34.227Z,59.08
2023-07-24T01:43:00.863Z,59.19
2023-07-24T01:45:27.595Z,59.04
2023-07-24T01:47:54.458Z,59.05
2023-07-24T01:50:21.105Z,59.22
2023-07-24T01:52:47.788Z,59.14
2023-07-24T01:55:14.551Z,59.20
2023-07-24T01:57:41.164Z,59.12
2023-07-24T02:00:08.072Z,59.38
2023-07-24T02:02:35.112Z,59.22
2023-07-24T02:05:01.804Z,59.10
2023-07-24T02:07:28.432Z,59.26
2023-07-24T02:09:55.204Z,59.21
2023-07-24T02:12:21.812Z,59.20
2023-07-24T02:14:50.984Z,59.33
2023-07-24T02:17:17.622Z,59.52
2023-07-24T02:19:44.341Z,59.49
2023-07-24T02:22:10.935Z,59.60
2023-07-24T02:24:37.641Z,59.37
2023-07-24T02:27:04.422Z,59.37
2023-07-24T02:29:31.102Z,59.32
2023-07-24T02:31:58.467Z,59.55
2023-07-24T02:34:27.432Z,59.53
2023-07-24T02:36:54.393Z,59.89
2023-07-24T02:39:21.414Z,59.43
2023-07-24T02:41:51.160Z,59.75
2023-07-24T02:44:17.774Z,59.63
2023-07-24T02:46:44.496Z,59.88
2023-07-24T02:49:11.075Z,59.86
2023-07-24T02:51:37.735Z,59.93
2023-07-24T02:54:04.506Z,59.87
2023-07-24T02:56:31.327Z,59.78
2023-07-24T02:58:58.148Z,59.96
2023-07-24T03:01:24.965Z,59.99
2023-07-24T03:03:51.648Z,59.89
2023-07-24T03:06:18.347Z,59.96
2023-07-24T03:08:44.987Z,59.86
2023-07-24T03:11:11.654Z,60.25
2023-07-24T03:13:38.438Z,60.13
2023-07-24T03:16:05.301Z,59.90
2023-07-24T03:18:31.921Z,59.87
2023-07-24T03:20:59.155Z,60.16
2023-07-24T03:23:25.892Z,60.01
2023-07-24T03:25:52.579Z,60.14
2023-07-24T03:28:19.385Z,60.22
2023-07-24T03:30:46.053Z,60.44
2023-07-24T03:33:13.442Z,60.63
2023-07-24T03:35:40.589Z,60.59
2023-07-24T03:38:07.374Z,60.97
2023-07-24T03:40:34.058Z,60.92
2023-07-24T03:43:00.783Z,60.98
2023-07-24T03:45:27.532Z,61.14
2023-07-24T03:47:54.191Z,60.93
2023-07-24T03:50:20.877Z,61.25
2023-07-24T03:52:47.634Z,61.52
2023-07-24T03:55:14.257Z,61.45
2023-07-24T03:57:40.868Z,61.39
2023-07-24T04:00:07.860Z,61.56
2023-07-24T04:02:34.559Z,61.64
2023-07-24T04:05:01.197Z,61.73
2023-07-24T04:07:28.027Z,61.66
2023-07-24T04:09:55.417Z,61.79
2023-07-24T04:12:21.996Z,61.96
2023-07-24T04:14:50.155Z,62.05
2023-07-24T04:17:17.048Z,62.38
2023-07-24T04:19:43.759Z,62.34
2023-07-24T04:22:10.409Z,62.50
2023-07-24T04:24:37.123Z,62.61
2023-07-24T04:27:03.891Z,62.89
2023-07-24T04:29:30.604Z,63.05
2023-07-24T04:31:57.282Z,63.22
2023-07-24T04:34:23.893Z,63.70
2023-07-24T04:36:50.582Z,64.05
2023-07-24T04:39:17.225Z,64.08
2023-07-24T04:41:43.786Z,64.24
2023-07-24T04:44:10.451Z,64.47
2023-07-24T04:46:37.104Z,64.65
2023-07-24T04:49:03.862Z,64.80
2023-07-24T04:51:31.787Z,64.97
2023-07-24T04:53:59.902Z,65.18
2023-07-24T04:56:26.621Z,65.15
2023-07-24T04:58:54.149Z,65.22
2023-07-24T05:01:20.925Z,65.24
2023-07-24T05:03:47.635Z,65.37
2023-07-24T05:06:14.291Z,65.41
2023-07-24T05:08:40.900Z,65.59
2023-07-24T05:11:07.497Z,65.75
2023-07-24T05:13:34.243Z,65.58
2023-07-24T05:16:00.932Z,65.70
2023-07-24T05:18:27.532Z,65.82
2023-07-24T05:20:54.291Z,65.70
2023-07-24T05:23:20.930Z,65.71
2023-07-24T05:25:47.869Z,65.47
2023-07-24T05:28:14.522Z,65.67
2023-07-24T05:30:41.189Z,65.60
2023-07-24T05:33:08.092Z,65.88
2023-07-24T05:35:35.650Z,65.58
2023-07-24T05:38:02.301Z,65.91
2023-07-24T05:40:29.586Z,65.70
2023-07-24T05:42:56.266Z,65.93
2023-07-24T05:45:22.986Z,65.83
2023-07-24T05:47:49.806Z,65.74
2023-07-24T05:50:16.547Z,66.00
2023-07-24T05:52:43.144Z,66.11
2023-07-24T05:55:09.763Z,65.88
2023-07-24T05:57:36.664Z,65.75
2023-07-24T06:00:06.514Z,66.10
2023-07-24T06:02:33.203Z,66.06
2023-07-24T06:04:59.954Z,65.87
2023-07-24T06:07:26.647Z,65.80
2023-07-24T06:09:53.270Z,65.84
2023-07-24T06:12:19.978Z,65.89
2023-07-24T06:14:46.600Z,65.87
2023-07-24T06:17:13.240Z,65.78
2023-07-24T06:19:40.010Z,65.96
2023-07-24T06:22:06.621Z,65.69
2023-07-24T06:24:33.326Z,65.66
2023-07-24T06:27:00.180Z,65.87
2023-07-24T06:29:27.178Z,65.97
2023-07-24T06:31:53.860Z,65.79
2023-07-24T06:34:20.623Z,65.93
2023-07-24T06:36:47.383Z,65.88
2023-07-24T06:39:13.980Z,65.66
2023-07-24T06:41:40.626Z,65.82
2023-07-24T06:44:07.222Z,66.05
2023-07-24T06:46:33.822Z,65.90
2023-07-24T06:49:00.491Z,66.06
2023-07-24T06:51:27.188Z,65.94
2023-07-24T06:53:53.787Z,65.93
2023-07-24T06:56:20.436Z,66.13
2023-07-24T06:58:47.025Z,66.01
2023-07-24T07:01:13.696Z,66.35
2023-07-24T07:03:40.485Z,65.78
2023-07-24T07:06:08.015Z,65.90
2023-07-24T07:08:34.860Z,66.06
2023-07-24T07:11:01.706Z,66.09
2023-07-24T07:13:29.277Z,66.27
2023-07-24T07:15:55.957Z,66.22
2023-07-24T07:18:22.785Z,65.84
2023-07-24T07:20:49.833Z,65.85
2023-07-24T07:23:16.558Z,65.79
2023-07-24T07:25:44.986Z,65.40
2023-07-24T07:28:11.761Z,65.19
2023-07-24T07:30:41.040Z,65.24
2023-07-24T07:33:08.627Z,65.10
2023-07-24T07:35:35.699Z,65.49
2023-07-24T07:38:02.433Z,65.26
2023-07-24T07:43:14.152Z,64.79
2023-07-24T07:45:40.744Z,64.91
2023-07-24T07:48:07.332Z,64.29
2023-07-24T07:50:34.108Z,64.82
2023-07-24T07:53:00.757Z,65.01
2023-07-24T07:55:27.438Z,64.57
2023-07-24T07:57:54.178Z,64.75
2023-07-24T08:00:20.925Z,64.96
2023-07-24T08:02:47.652Z,65.09
2023-07-24T08:05:18.940Z,65.36
2023-07-24T08:07:47.474Z,64.76
2023-07-24T08:10:16.474Z,64.98
2023-07-24T08:12:44.350Z,64.72
2023-07-24T08:15:11.148Z,64.35
2023-07-24T08:17:38.151Z,65.00
2023-07-24T08:20:05.152Z,64.59
2023-07-24T08:22:31.743Z,65.46
2023-07-24T08:24:58.563Z,64.79
2023-07-24T08:27:28.143Z,64.70
2023-07-24T08:29:54.926Z,64.19
2023-07-24T08:32:21.924Z,63.94
2023-07-24T08:34:48.709Z,63.79
2023-07-24T08:37:15.355Z,63.84
2023-07-24T08:39:43.076Z,62.87
2023-07-24T08:42:10.862Z,62.85
2023-07-24T08:44:39.156Z,62.14
2023-07-24T08:47:07.528Z,61.90
2023-07-24T08:49:34.666Z,61.73
2023-07-24T08:52:02.120Z,62.17
2023-07-24T08:54:29.151Z,62.18
2023-07-24T08:56:56.514Z,62.24
2023-07-24T08:59:23.235Z,62.55
2023-07-24T09:01:50.113Z,62.47
2023-07-24T09:04:16.692Z,63.39
2023-07-24T09:06:43.273Z,63.64
2023-07-24T09:09:16.314Z,63.30
2023-07-24T09:11:55.253Z,63.42
2023-07-24T09:14:25.478Z,62.28
2023-07-24T09:17:02.858Z,61.12
2023-07-24T09:19:29.688Z,60.37
2023-07-24T09:21:56.258Z,60.90
2023-07-24T09:24:22.978Z,61.06
2023-07-24T09:26:50.336Z,61.01
2023-07-24T09:29:17.944Z,61.27
2023-07-24T09:31:45.262Z,61.09
2023-07-24T09:34:18.353Z,60.66
2023-07-24T09:36:45.548Z,59.84
2023-07-24T09:39:12.983Z,59.80
2023-07-24T09:41:41.656Z,59.22
2023-07-24T09:44:08.643Z,58.02
2023-07-24T09:46:46.224Z,57.94
2023-07-24T09:49:14.960Z,57.40
2023-07-24T09:51:42.032Z,57.88
2023-07-24T09:54:21.334Z,58.88
2023-07-24T09:56:53.809Z,57.98
2023-07-24T09:59:27.781Z,57.46
2023-07-24T10:01:54.390Z,56.83
2023-07-24T10:04:21.170Z,56.60
2023-07-24T10:12:19.456Z,58.43
2023-07-24T10:14:46.894Z,57.79
2023-07-24T10:17:13.488Z,57.44
2023-07-24T10:19:40.730Z,56.61
2023-07-24T10:22:07.639Z,56.38
2023-07-24T10:24:41.591Z,56.62
2023-07-24T10:27:08.824Z,56.32
2023-07-24T10:29:36.831Z,56.14
2023-07-24T10:32:03.936Z,55.70
2023-07-24T10:34:40.463Z,54.66
2023-07-24T10:37:11.200Z,53.97
2023-07-24T10:39:41.860Z,53.72
2023-07-24T10:42:11.889Z,54.29
2023-07-24T10:44:38.774Z,54.31
2023-07-24T10:47:05.782Z,54.44
2023-07-24T10:49:32.426Z,54.74
2023-07-24T10:51:59.410Z,54.59
2023-07-24T10:57:11.550Z,55.04
2023-07-24T10:59:41.206Z,54.27
2023-07-24T11:02:08.224Z,54.08
2023-07-24T11:04:35.176Z,53.05
2023-07-24T11:07:02.277Z,53.39
2023-07-24T11:09:35.643Z,52.62
2023-07-24T11:12:09.858Z,52.22
2023-07-24T11:17:21.822Z,52.75
2023-07-24T11:19:48.609Z,53.07
2023-07-24T11:22:15.324Z,53.09
2023-07-24T11:24:48.395Z,52.71
2023-07-24T11:27:16.273Z,52.39
2023-07-24T11:29:43.997Z,53.44
2023-07-24T11:32:11.107Z,52.26
2023-07-24T11:34:37.778Z,51.99
2023-07-24T11:37:04.704Z,51.43
2023-07-24T11:39:31.591Z,50.34
2023-07-24T11:41:58.250Z,50.80
2023-07-24T11:44:28.156Z,50.49
2023-07-24T11:50:01.437Z,50.54
2023-07-24T11:52:38.158Z,51.33
2023-07-24T11:55:05.561Z,51.13
2023-07-24T11:57:32.274Z,50.13
2023-07-24T12:00:01.589Z,49.66
2023-07-24T12:02:29.221Z,49.37
2023-07-24T12:04:59.239Z,50.52
2023-07-24T12:07:35.479Z,51.31
2023-07-24T12:10:02.801Z,50.37
2023-07-24T12:12:38.050Z,50.16
2023-07-24T12:15:04.813Z,49.35
2023-07-24T12:17:31.476Z,50.09
2023-07-24T12:19:58.324Z,49.71
2023-07-24T12:22:24.900Z,48.95
2023-07-24T12:24:51.555Z,47.91
2023-07-24T12:27:18.634Z,48.23
2023-07-24T12:29:45.298Z,47.98
2023-07-24T12:32:13.624Z,47.93
2023-07-24T12:34:40.292Z,47.99
2023-07-24T12:37:06.893Z,47.26
2023-07-24T12:39:33.489Z,46.50
2023-07-24T12:42:00.826Z,46.66
2023-07-24T12:44:27.446Z,45.82
2023-07-24T12:46:54.189Z,44.94
2023-07-24T12:49:21.538Z,44.87
2023-07-24T12:51:48.123Z,44.54
2023-07-24T12:54:29.187Z,44.13
2023-07-24T12:57:02.413Z,44.05
2023-07-24T12:59:29.127Z,43.26
2023-07-24T13:01:55.750Z,42.28
2023-07-24T13:04:23.461Z,42.56
2023-07-24T13:06:50.206Z,41.62
2023-07-24T13:09:16.775Z,41.28
2023-07-24T13:11:43.683Z,39.86
2023-07-24T13:14:11.333Z,39.55
2023-07-24T13:16:37.937Z,39.52
2023-07-24T13:19:04.728Z,39.48
2023-07-24T13:21:31.512Z,39.98
2023-07-24T13:23:58.630Z,40.58
2023-07-24T13:26:25.434Z,40.71
2023-07-24T13:28:52.181Z,41.11
2023-07-24T13:31:19.795Z,40.97
2023-07-24T13:33:46.436Z,41.11
2023-07-24T13:36:13.136Z,41.42
2023-07-24T13:38:40.350Z,41.51
2023-07-24T13:41:07.452Z,41.62
2023-07-24T13:43:34.095Z,41.91
2023-07-24T13:46:00.764Z,42.33
2023-07-24T13:48:31.109Z,42.47
2023-07-24T13:50:57.735Z,42.76
2023-07-24T13:53:24.421Z,43.02
2023-07-24T13:55:51.114Z,43.20
2023-07-24T13:58:17.725Z,43.20
2023-07-24T14:00:44.305Z,43.98
2023-07-24T14:03:11.090Z,43.79
2023-07-24T14:05:41.876Z,44.07
2023-07-24T14:08:08.494Z,44.23
2023-07-24T14:10:35.426Z,44.30
2023-07-24T14:13:02.023Z,44.07
2023-07-24T14:15:28.673Z,44.20
2023-07-24T14:17:55.508Z,44.55
2023-07-24T14:20:22.234Z,44.52
2023-07-24T14:22:48.906Z,44.53
2023-07-24T14:25:15.698Z,44.87
2023-07-24T14:27:42.289Z,44.63
2023-07-24T14:30:10.250Z,44.62
2023-07-24T14:32:37.751Z,44.54
2023-07-24T14:35:04.469Z,44.95
2023-07-24T14:37:32.109Z,45.02
2023-07-24T14:39:59.114Z,44.99
2023-07-24T14:42:25.801Z,45.11
2023-07-24T14:44:52.612Z,45.29
2023-07-24T14:47:19.374Z,45.49
2023-07-24T14:49:45.963Z,45.46
2023-07-24T14:52:12.581Z,45.75
2023-07-24T14:54:39.955Z,45.61
2023-07-24T14:57:19.246Z,46.00
2023-07-24T14:59:51.345Z,46.09
2023-07-24T15:02:17.986Z,45.94
2023-07-24T15:04:46.151Z,46.00
2023-07-24T15:07:12.955Z,45.82
2023-07-24T15:09:39.571Z,46.29
2023-07-24T15:12:06.296Z,46.03
2023-07-24T15:17:19.556Z,46.08
2023-07-24T15:19:46.289Z,45.94
2023-07-24T15:22:12.956Z,45.90
2023-07-24T15:24:40.787Z,45.99
2023-07-24T15:27:09.948Z,46.17
2023-07-24T15:29:39.570Z,46.51
2023-07-24T15:32:06.821Z,46.63
2023-07-24T15:34:33.731Z,46.58
2023-07-24T15:37:01.297Z,46.87
2023-07-24T15:39:28.722Z,46.59
2023-07-24T15:41:55.409Z,46.87
2023-07-24T15:44:21.997Z,46.74
2023-07-24T15:49:33.363Z,46.82
2023-07-24T15:51:59.990Z,47.20
2023-07-24T15:54:26.700Z,47.24
2023-07-24T15:56:54.372Z,47.14
2023-07-24T15:59:21.055Z,47.46
2023-07-24T16:01:47.766Z,47.74
2023-07-24T16:04:14.804Z,47.40
2023-07-24T16:06:41.465Z,47.58
2023-07-24T16:09:08.057Z,47.57
2023-07-24T16:11:34.836Z,47.66
2023-07-24T16:14:01.414Z,47.22
2023-07-24T16:16:28.117Z,47.75
2023-07-24T16:19:14.441Z,47.28
2023-07-24T16:21:41.222Z,47.49
2023-07-24T16:24:07.830Z,47.66
2023-07-24T16:26:34.934Z,47.41
2023-07-24T16:29:01.698Z,47.66
2023-07-24T16:31:35.289Z,47.55
2023-07-24T16:34:02.600Z,47.62
2023-07-24T16:36:31.694Z,47.68
2023-07-24T16:38:58.681Z,48.05
2023-07-24T16:41:26.077Z,48.21
2023-07-24T16:43:52.841Z,47.93
2023-07-24T16:48:49.264Z,48.18
2023-07-24T16:51:16.464Z,47.92
2023-07-24T16:53:43.406Z,48.11
2023-07-24T16:56:10.387Z,47.63
2023-07-24T16:58:36.966Z,48.10
2023-07-24T17:01:03.765Z,47.86
2023-07-24T17:03:30.568Z,48.09
2023-07-24T17:05:57.385Z,48.58
2023-07-24T17:08:24.067Z,48.38
2023-07-24T17:10:51.801Z,48.36
2023-07-24T17:13:18.479Z,48.44
2023-07-24T17:15:45.123Z,48.76
2023-07-24T17:18:11.866Z,49.00
2023-07-24T17:20:39.395Z,49.04
2023-07-24T17:23:06.478Z,49.01
2023-07-24T17:25:33.226Z,48.59
2023-07-24T17:27:59.918Z,48.44
2023-07-24T17:30:26.946Z,48.93
2023-07-24T17:32:53.770Z,48.77
2023-07-24T17:35:20.435Z,49.26
2023-07-24T17:37:47.296Z,48.87
2023-07-24T17:40:14.343Z,49.40
2023-07-24T17:42:40.939Z,49.38
2023-07-24T17:45:07.764Z,49.08
2023-07-24T17:47:34.575Z,49.50
2023-07-24T17:50:07.934Z,49.65
2023-07-24T17:52:35.655Z,49.67
2023-07-24T17:55:02.233Z,49.73
2023-07-24T17:57:28.850Z,49.58
2023-07-24T17:59:55.850Z,49.47
2023-07-24T18:02:22.535Z,49.96
2023-07-24T18:04:49.377Z,49.36
2023-07-24T18:07:16.324Z,49.81
2023-07-24T18:09:42.917Z,49.81
2023-07-24T18:12:10.125Z,49.89
2023-07-24T18:14:36.913Z,50.08
2023-07-24T18:17:03.697Z,49.99
2023-07-24T18:19:30.320Z,49.86
2023-07-24T18:21:57.121Z,50.08
2023-07-24T18:24:23.811Z,49.98
2023-07-24T18:26:50.430Z,50.21
2023-07-24T18:29:17.283Z,50.39
2023-07-24T18:31:44.225Z,50.47
2023-07-24T18:34:10.851Z,50.13
2023-07-24T18:39:21.891Z,50.58
2023-07-24T18:41:48.483Z,50.33
2023-07-24T18:44:15.384Z,50.44
2023-07-24T18:46:42.261Z,50.37
2023-07-24T18:49:08.838Z,50.53
2023-07-24T18:51:35.495Z,50.58
2023-07-24T18:56:46.637Z,50.74
2023-07-24T18:59:13.333Z,50.78
2023-07-24T19:01:39.981Z,51.05
2023-07-24T19:04:06.948Z,50.69
2023-07-24T19:06:35.595Z,51.11
2023-07-24T19:09:04.122Z,50.69
2023-07-24T19:16:59.740Z,51.27
2023-07-24T19:19:26.376Z,50.95
2023-07-24T19:21:53.055Z,50.81
2023-07-24T19:24:19.906Z,51.15
2023-07-24T19:26:46.813Z,51.05
2023-07-24T19:29:13.528Z,50.72
2023-07-24T19:31:40.292Z,51.06
2023-07-24T19:34:06.879Z,51.19
2023-07-24T19:36:33.488Z,50.90
2023-07-24T19:39:00.202Z,51.12
2023-07-24T19:41:26.841Z,50.53
2023-07-24T19:43:53.486Z,50.84
2023-07-24T19:46:20.251Z,50.43
2023-07-24T19:48:47.031Z,50.90
2023-07-24T19:51:13.624Z,50.40
2023-07-24T19:53:40.405Z,50.29
2023-07-24T19:56:07.049Z,51.01
2023-07-24T19:58:36.953Z,50.70
2023-07-24T20:01:04.700Z,50.78
2023-07-24T20:03:31.390Z,50.73
2023-07-24T20:05:58.913Z,50.78
2023-07-24T20:08:26.262Z,50.81
2023-07-24T20:10:52.852Z,50.59
2023-07-24T20:13:19.493Z,50.79
2023-07-24T20:15:46.325Z,50.50
2023-07-24T20:18:12.938Z,50.84
2023-07-24T20:20:39.687Z,51.09
2023-07-24T20:23:06.404Z,50.84
2023-07-24T20:25:33.009Z,50.85
2023-07-24T20:28:00.004Z,50.83
2023-07-24T20:30:26.967Z,51.14
2023-07-24T20:32:53.817Z,51.03
2023-07-24T20:35:20.592Z,50.95
2023-07-24T20:37:48.756Z,51.18
2023-07-24T20:40:15.400Z,51.21
2023-07-24T20:42:42.225Z,51.17
2023-07-24T20:45:09.283Z,51.62
2023-07-24T20:47:35.927Z,51.64
2023-07-24T20:52:47.220Z,51.64
2023-07-24T20:55:14.197Z,51.88
2023-07-24T20:57:40.810Z,52.11
2023-07-24T21:00:07.779Z,52.05
2023-07-24T21:02:34.516Z,51.96
2023-07-24T21:05:01.168Z,52.03
2023-07-24T21:07:27.944Z,52.35
2023-07-24T21:09:54.533Z,52.16
2023-07-24T21:12:21.117Z,52.35
2023-07-24T21:14:47.985Z,52.34
2023-07-24T21:17:14.575Z,52.46
2023-07-24T21:19:41.226Z,52.52
2023-07-24T21:22:07.946Z,52.40
2023-07-24T21:24:34.658Z,52.56
2023-07-24T21:27:01.332Z,52.61
2023-07-24T21:29:27.953Z,52.66
2023-07-24T21:31:54.873Z,52.89
2023-07-24T21:34:21.758Z,52.92
2023-07-24T21:36:48.554Z,52.71
2023-07-24T21:39:15.120Z,52.91
2023-07-24T21:44:26.560Z,52.66
2023-07-24T21:46:53.618Z,52.86
2023-07-24T21:49:20.261Z,52.98
2023-07-24T21:51:47.051Z,52.97
2023-07-24T21:54:13.715Z,53.24
2023-07-24T21:56:40.297Z,53.32
2023-07-24T21:59:07.307Z,53.58
2023-07-24T22:01:34.365Z,53.60
2023-07-24T22:04:01.343Z,53.68
2023-07-24T22:06:28.048Z,53.48
2023-07-24T22:08:54.922Z,53.29
2023-07-24T22:11:22.763Z,53.43
2023-07-24T22:13:49.450Z,53.50
2023-07-24T22:16:16.790Z,53.51
2023-07-24T22:18:43.521Z,53.46
2023-07-24T22:21:10.312Z,53.62
2023-07-24T22:23:36.929Z,53.47
2023-07-24T22:26:03.575Z,53.48
2023-07-24T22:28:30.301Z,53.58
2023-07-24T22:30:57.240Z,53.39
2023-07-24T22:33:24.278Z,53.49
2023-07-24T22:35:58.158Z,53.42
2023-07-24T22:38:24.750Z,53.54
2023-07-24T22:40:51.343Z,53.47
2023-07-24T22:46:02.288Z,53.51
2023-07-24T22:48:28.952Z,53.47
2023-07-24T22:50:55.535Z,53.54
2023-07-24T22:53:22.514Z,53.36
2023-07-24T22:55:49.088Z,53.57
2023-07-24T22:58:15.733Z,53.68
2023-07-24T23:00:42.552Z,53.65
2023-07-24T23:03:12.497Z,53.73
2023-07-24T23:05:39.305Z,53.76
2023-07-24T23:08:05.976Z,53.93
2023-07-24T23:10:32.668Z,53.94
2023-07-24T23:12:59.325Z,53.78
2023-07-24T23:15:26.002Z,53.79
2023-07-24T23:17:52.714Z,53.85
2023-07-24T23:20:19.386Z,53.77
2023-07-24T23:22:46.079Z,53.71
2023-07-24T23:25:12.650Z,53.43
2023-07-24T23:27:39.283Z,53.75
2023-07-24T23:30:06.434Z,53.60
2023-07-24T23:32:33.105Z,53.78
2023-07-24T23:34:59.716Z,53.38
2023-07-24T23:37:26.391Z,53.46
2023-07-24T23:39:53.004Z,53.26
2023-07-24T23:42:19.595Z,53.44
2023-07-24T23:44:46.379Z,53.37
2023-07-24T23:47:13.021Z,53.62
2023-07-24T23:49:39.726Z,53.51
2023-07-24T23:52:06.754Z,53.38
2023-07-24T23:54:33.440Z,53.63
2023-07-24T23:57:00.106Z,53.71
2023-07-24T23:59:26.821Z,53.51
